Time;durP1;ratioP1;P1;durP2;ratioP2;P2;SDS_P1;SDS_P2;PMS_P1;PMS_P2;Temp;Humidity;BMP_temperature;BMP_pressure;BME280_temperature;BME280_humidity;BME280_pressure;Samples;Min_cycle;Max_cycle;Signal;HPM_P1;HPM_P2
2022/05/19 00:01:56;;;;;;;13.35;9.35;;;;;;;;;;5117953;27;20043;-47
2022/05/19 00:04:22;;;;;;;9.88;7.90;;;;;;;;;;5113251;27;20122;-47
2022/05/19 00:06:48;;;;;;;9.93;8.93;;;;;;;;;;5115420;27;20032;-41
2022/05/19 00:09:13;;;;;;;10.07;8.60;;;;;;;;;;5117704;27;20584;-44
2022/05/19 00:11:39;;;;;;;10.02;8.90;;;;;;;;;;5119391;27;20164;-44
2022/05/19 00:14:05;;;;;;;9.20;7.70;;;;;;;;;;5116083;27;20543;-45
2022/05/19 00:16:30;;;;;;;23.13;9.85;;;;;;;;;;5117681;27;20043;-46
2022/05/19 00:18:55;;;;;;;8.77;7.45;;;;;;;;;;5109844;27;20189;-44
2022/05/19 00:21:21;;;;;;;8.85;7.53;;;;;;;;;;5109417;27;20047;-44
2022/05/19 00:23:47;;;;;;;11.85;8.05;;;;;;;;;;5114276;27;20056;-45
2022/05/19 00:26:12;;;;;;;20.63;9.82;;;;;;;;;;5121411;27;20047;-48
2022/05/19 00:28:38;;;;;;;21.52;9.75;;;;;;;;;;5120907;27;20052;-43
2022/05/19 00:31:03;;;;;;;17.02;9.80;;;;;;;;;;5119398;27;20618;-48
2022/05/19 00:33:28;;;;;;;18.33;11.10;;;;;;;;;;5118584;27;20488;-47
2022/05/19 00:35:54;;;;;;;11.48;9.70;;;;;;;;;;5118421;27;20504;-46
2022/05/19 00:38:19;;;;;;;12.75;9.95;;;;;;;;;;5116384;27;20039;-42
2022/05/19 00:40:49;;;;;;;12.77;9.43;;;;;;;;;;5115179;27;20035;-44
2022/05/19 00:43:15;;;;;;;8.90;7.72;;;;;;;;;;5103810;27;20048;-46
2022/05/19 00:45:44;;;;;;;17.20;10.00;;;;;;;;;;5111427;27;20077;-46
2022/05/19 00:48:17;;;;;;;11.88;9.52;;;;;;;;;;5114311;27;20051;-42
2022/05/19 00:50:51;;;;;;;15.55;9.75;;;;;;;;;;5105263;27;20497;-48
2022/05/19 00:53:20;;;;;;;11.05;10.02;;;;;;;;;;5111526;27;20082;-42
2022/05/19 00:55:47;;;;;;;11.13;9.40;;;;;;;;;;5115901;27;20047;-43
2022/05/19 00:58:18;;;;;;;10.35;7.45;;;;;;;;;;5115636;27;20377;-46
2022/05/19 01:00:45;;;;;;;7.97;7.28;;;;;;;;;;5113450;27;20153;-44
2022/05/19 01:03:12;;;;;;;13.38;9.38;;;;;;;;;;5114914;27;20051;-43
2022/05/19 01:05:41;;;;;;;13.73;7.57;;;;;;;;;;5115815;27;20153;-45
2022/05/19 01:08:25;;;;;;;19.42;10.27;;;;;;;;;;5115826;27;20070;-43
2022/05/19 01:10:52;;;;;;;11.00;8.40;;;;;;;;;;5111485;27;20484;-44
2022/05/19 01:13:18;;;;;;;14.27;8.82;;;;;;;;;;5111562;27;20077;-43
2022/05/19 01:15:45;;;;;;;10.02;7.97;;;;;;;;;;5106037;27;20074;-47
2022/05/19 01:18:11;;;;;;;13.75;8.65;;;;;;;;;;5119194;27;20559;-46
2022/05/19 01:20:38;;;;;;;10.80;8.65;;;;;;;;;;5113671;27;20137;-48
2022/05/19 01:23:18;;;;;;;20.45;9.00;;;;;;;;;;5109703;27;20719;-45
2022/05/19 01:26:02;;;;;;;19.55;9.15;;;;;;;;;;5103628;28;20051;-47
2022/05/19 01:28:28;;;;;;;17.75;9.38;;;;;;;;;;5102091;27;20075;-45
2022/05/19 01:30:53;;;;;;;7.95;7.18;;;;;;;;;;5111346;27;20504;-45
2022/05/19 01:33:19;;;;;;;10.32;9.45;;;;;;;;;;5112503;28;20125;-47
2022/05/19 01:35:44;;;;;;;9.48;7.25;;;;;;;;;;5113700;27;20423;-43
2022/05/19 01:38:17;;;;;;;18.58;9.57;;;;;;;;;;5110146;28;20058;-42
2022/05/19 01:40:55;;;;;;;10.73;7.88;;;;;;;;;;5121155;28;20140;-42
2022/05/19 01:43:39;;;;;;;8.80;6.22;;;;;;;;;;5121462;27;20051;-42
2022/05/19 01:46:39;;;;;;;7.57;6.60;;;;;;;;;;5108571;28;20055;-46
2022/05/19 01:49:08;;;;;;;7.10;6.32;;;;;;;;;;5060820;28;20386;-42
2022/05/19 01:51:42;;;;;;;15.38;8.27;;;;;;;;;;5105320;27;20055;-43
2022/05/19 01:54:31;;;;;;;8.20;7.40;;;;;;;;;;5116404;28;20118;-46
2022/05/19 01:57:05;;;;;;;11.43;7.88;;;;;;;;;;5110110;28;20096;-46
2022/05/19 01:59:53;;;;;;;9.02;6.18;;;;;;;;;;5118246;27;20079;-47
2022/05/19 02:02:23;;;;;;;9.38;7.93;;;;;;;;;;5122674;27;20054;-44
2022/05/19 02:04:51;;;;;;;12.20;7.13;;;;;;;;;;5112585;27;20059;-44
2022/05/19 02:07:17;;;;;;;14.52;7.85;;;;;;;;;;5115225;27;20059;-43
2022/05/19 02:09:46;;;;;;;8.95;7.95;;;;;;;;;;5121376;27;20636;-46
2022/05/19 02:12:11;;;;;;;14.73;9.38;;;;;;;;;;5118378;27;20043;-44
2022/05/19 02:14:39;;;;;;;9.55;8.50;;;;;;;;;;5119389;27;20430;-43
2022/05/19 02:17:05;;;;;;;11.95;7.88;;;;;;;;;;5119688;27;20134;-46
2022/05/19 02:19:33;;;;;;;9.43;8.35;;;;;;;;;;5114370;27;20065;-43
2022/05/19 02:22:00;;;;;;;8.60;7.88;;;;;;;;;;5110384;27;20050;-45
2022/05/19 02:24:25;;;;;;;8.40;7.32;;;;;;;;;;5108167;27;20337;-47
2022/05/19 02:26:51;;;;;;;12.88;7.88;;;;;;;;;;5106323;27;20607;-42
2022/05/19 02:29:22;;;;;;;8.13;7.20;;;;;;;;;;5112827;27;20039;-44
2022/05/19 02:31:48;;;;;;;11.35;7.78;;;;;;;;;;5112934;27;20051;-44
2022/05/19 02:34:13;;;;;;;10.65;7.47;;;;;;;;;;5107607;27;20048;-46
2022/05/19 02:36:39;;;;;;;11.25;8.00;;;;;;;;;;5115195;27;20054;-48
2022/05/19 02:39:04;;;;;;;8.27;7.07;;;;;;;;;;5118956;27;20043;-46
2022/05/19 02:41:30;;;;;;;10.82;7.55;;;;;;;;;;5117901;27;20047;-47
2022/05/19 02:43:55;;;;;;;10.27;8.18;;;;;;;;;;5113941;27;20043;-44
2022/05/19 02:46:20;;;;;;;9.98;8.20;;;;;;;;;;5103382;27;20058;-43
2022/05/19 02:48:45;;;;;;;7.53;5.85;;;;;;;;;;5110158;27;20047;-43
2022/05/19 02:51:11;;;;;;;9.15;8.23;;;;;;;;;;5118692;27;20055;-43
2022/05/19 02:53:36;;;;;;;10.30;8.07;;;;;;;;;;5112151;27;20121;-43
2022/05/19 02:56:02;;;;;;;11.30;8.27;;;;;;;;;;5116400;27;20047;-45
2022/05/19 02:58:27;;;;;;;17.80;8.60;;;;;;;;;;5113731;27;20115;-47
2022/05/19 03:00:52;;;;;;;9.70;7.72;;;;;;;;;;5113354;27;20046;-48
2022/05/19 03:03:18;;;;;;;13.40;8.73;;;;;;;;;;5114043;27;20075;-46
2022/05/19 03:05:44;;;;;;;11.30;7.35;;;;;;;;;;5123934;27;20531;-47
2022/05/19 03:08:09;;;;;;;12.20;7.53;;;;;;;;;;5119722;27;20073;-44
2022/05/19 03:10:36;;;;;;;11.50;6.55;;;;;;;;;;5112307;27;20043;-43
2022/05/19 03:13:01;;;;;;;7.88;6.32;;;;;;;;;;5115790;27;20465;-42
2022/05/19 03:15:27;;;;;;;8.82;7.20;;;;;;;;;;5114420;27;20060;-41
2022/05/19 03:17:52;;;;;;;13.32;7.97;;;;;;;;;;5110313;27;20125;-46
2022/05/19 03:20:18;;;;;;;13.00;8.15;;;;;;;;;;5114461;27;20485;-48
2022/05/19 03:22:43;;;;;;;16.27;7.78;;;;;;;;;;5112182;27;20052;-45
2022/05/19 03:25:09;;;;;;;9.00;8.05;;;;;;;;;;5119260;27;20068;-45
2022/05/19 03:27:35;;;;;;;31.75;8.88;;;;;;;;;;5121030;27;20476;-45
2022/05/19 03:30:01;;;;;;;14.35;7.63;;;;;;;;;;5115476;27;20052;-44
2022/05/19 03:32:27;;;;;;;9.00;7.95;;;;;;;;;;5110450;27;20053;-46
2022/05/19 03:34:53;;;;;;;10.10;6.80;;;;;;;;;;5104607;27;20481;-45
2022/05/19 03:37:18;;;;;;;19.92;8.50;;;;;;;;;;5111252;27;20043;-47
2022/05/19 03:39:43;;;;;;;13.93;7.75;;;;;;;;;;5102157;27;20055;-45
2022/05/19 03:42:09;;;;;;;12.65;8.20;;;;;;;;;;5114821;27;20055;-44
2022/05/19 03:44:35;;;;;;;19.58;8.38;;;;;;;;;;5111270;27;20149;-43
2022/05/19 03:47:01;;;;;;;18.40;7.07;;;;;;;;;;5093835;27;20730;-46
2022/05/19 03:49:26;;;;;;;13.63;8.00;;;;;;;;;;5120445;27;20072;-46
2022/05/19 03:51:52;;;;;;;8.13;6.75;;;;;;;;;;5119763;27;20052;-46
2022/05/19 03:54:17;;;;;;;8.95;7.65;;;;;;;;;;5113079;27;21022;-48
2022/05/19 03:56:42;;;;;;;8.95;7.60;;;;;;;;;;5110742;27;20185;-44
2022/05/19 03:59:08;;;;;;;13.20;8.23;;;;;;;;;;5117726;27;20185;-49
2022/05/19 04:01:33;;;;;;;11.05;7.65;;;;;;;;;;5118010;27;20146;-44
2022/05/19 04:03:59;;;;;;;15.95;7.93;;;;;;;;;;5106858;27;20164;-45
2022/05/19 04:06:25;;;;;;;12.52;8.25;;;;;;;;;;5100847;27;20078;-45
2022/05/19 04:08:50;;;;;;;10.43;6.28;;;;;;;;;;5111221;27;20039;-42
2022/05/19 04:11:16;;;;;;;8.63;7.28;;;;;;;;;;5120543;27;20550;-46
2022/05/19 04:13:41;;;;;;;7.70;7.03;;;;;;;;;;5122619;27;20726;-46
2022/05/19 04:16:06;;;;;;;15.35;7.05;;;;;;;;;;5119290;27;20031;-41
2022/05/19 04:18:32;;;;;;;8.07;5.70;;;;;;;;;;5109275;27;20755;-44
2022/05/19 04:20:57;;;;;;;13.23;6.30;;;;;;;;;;5118105;27;20566;-43
2022/05/19 04:23:22;;;;;;;8.95;7.10;;;;;;;;;;5115559;27;20040;-46
2022/05/19 04:25:48;;;;;;;8.52;6.57;;;;;;;;;;5108863;27;20047;-48
2022/05/19 04:28:13;;;;;;;11.07;7.65;;;;;;;;;;5118257;27;20047;-42
2022/05/19 04:30:41;;;;;;;10.40;7.25;;;;;;;;;;5113260;27;20085;-44
2022/05/19 04:33:06;;;;;;;6.53;5.93;;;;;;;;;;5114105;27;20047;-47
2022/05/19 04:35:32;;;;;;;10.13;5.88;;;;;;;;;;5117134;27;20035;-47
2022/05/19 04:37:58;;;;;;;12.95;7.85;;;;;;;;;;5117196;27;20130;-46
2022/05/19 04:40:23;;;;;;;10.80;6.93;;;;;;;;;;5109790;27;20648;-43
2022/05/19 04:42:48;;;;;;;7.75;6.93;;;;;;;;;;5108064;27;20050;-46
2022/05/19 04:45:15;;;;;;;16.83;6.20;;;;;;;;;;5111312;27;20420;-44
2022/05/19 04:47:40;;;;;;;11.13;5.95;;;;;;;;;;5120766;27;20058;-45
2022/05/19 04:50:07;;;;;;;16.27;6.90;;;;;;;;;;5115243;27;20042;-47
2022/05/19 04:52:32;;;;;;;7.25;6.40;;;;;;;;;;5108589;27;20110;-46
2022/05/19 04:54:57;;;;;;;8.13;6.15;;;;;;;;;;5119720;27;20181;-44
2022/05/19 04:57:23;;;;;;;10.15;7.63;;;;;;;;;;5121799;27;20408;-47
2022/05/19 04:59:48;;;;;;;7.72;6.30;;;;;;;;;;5118645;27;20040;-44
2022/05/19 05:02:14;;;;;;;8.30;6.15;;;;;;;;;;5119141;27;20119;-45
2022/05/19 05:04:39;;;;;;;7.93;6.40;;;;;;;;;;5112027;27;20411;-45
2022/05/19 05:07:05;;;;;;;9.20;7.57;;;;;;;;;;5108242;27;20031;-46
2022/05/19 05:09:30;;;;;;;18.77;8.35;;;;;;;;;;5111435;27;20508;-43
2022/05/19 05:11:55;;;;;;;10.60;6.70;;;;;;;;;;5116506;27;20075;-43
2022/05/19 05:14:21;;;;;;;13.90;7.65;;;;;;;;;;5118951;27;20039;-45
2022/05/19 05:16:48;;;;;;;10.02;6.85;;;;;;;;;;5109624;27;20514;-43
2022/05/19 05:19:13;;;;;;;17.92;9.77;;;;;;;;;;5114191;27;20043;-46
2022/05/19 05:21:38;;;;;;;23.08;7.43;;;;;;;;;;5105889;27;20058;-45
2022/05/19 05:24:04;;;;;;;15.60;8.00;;;;;;;;;;5103635;27;20085;-48
2022/05/19 05:26:29;;;;;;;16.05;8.35;;;;;;;;;;5110210;27;20078;-46
2022/05/19 05:28:55;;;;;;;13.48;7.88;;;;;;;;;;5118230;27;20043;-45
2022/05/19 05:31:20;;;;;;;14.48;11.05;;;;;;;;;;5116881;27;20075;-43
2022/05/19 05:33:45;;;;;;;13.50;9.07;;;;;;;;;;5114349;28;20036;-41
2022/05/19 05:36:11;;;;;;;12.55;7.35;;;;;;;;;;5106364;28;20301;-45
2022/05/19 05:38:36;;;;;;;15.65;8.65;;;;;;;;;;5113778;27;20051;-47
2022/05/19 05:41:02;;;;;;;15.32;7.10;;;;;;;;;;5119772;28;20151;-46
2022/05/19 05:43:28;;;;;;;18.60;7.32;;;;;;;;;;5118793;28;20043;-44
2022/05/19 05:45:53;;;;;;;8.05;6.45;;;;;;;;;;5119688;28;20074;-44
2022/05/19 05:48:18;;;;;;;9.18;8.27;;;;;;;;;;5116993;28;20137;-42
2022/05/19 05:50:44;;;;;;;12.93;9.18;;;;;;;;;;5117928;28;20046;-45
2022/05/19 05:53:09;;;;;;;14.40;9.10;;;;;;;;;;5098071;28;20096;-43
2022/05/19 05:55:35;;;;;;;8.10;7.40;;;;;;;;;;5111533;27;20133;-48
2022/05/19 05:58:05;;;;;;;16.63;7.82;;;;;;;;;;5115195;28;20040;-44
2022/05/19 06:00:30;;;;;;;32.70;9.38;;;;;;;;;;5110467;28;20056;-44
2022/05/19 06:02:56;;;;;;;16.88;9.35;;;;;;;;;;5109127;27;20544;-46
2022/05/19 06:05:21;;;;;;;19.77;9.80;;;;;;;;;;5103952;27;20131;-44
2022/05/19 06:07:46;;;;;;;17.00;8.32;;;;;;;;;;5111011;28;20047;-45
2022/05/19 06:10:12;;;;;;;23.35;11.75;;;;;;;;;;5107102;28;20531;-46
2022/05/19 06:12:38;;;;;;;10.20;8.18;;;;;;;;;;5110686;27;20047;-48
2022/05/19 06:15:04;;;;;;;53.70;48.20;;;;;;;;;;5114793;28;20442;-47
2022/05/19 06:17:29;;;;;;;15.77;9.30;;;;;;;;;;5113879;28;20043;-45
2022/05/19 06:19:54;;;;;;;30.15;11.68;;;;;;;;;;5105607;27;20439;-48
2022/05/19 06:22:22;;;;;;;9.77;8.32;;;;;;;;;;5111332;28;20062;-45
2022/05/19 06:24:47;;;;;;;18.60;9.73;;;;;;;;;;5116146;28;20051;-48
2022/05/19 06:27:12;;;;;;;11.18;9.07;;;;;;;;;;5110284;28;20042;-46
2022/05/19 06:29:38;;;;;;;23.45;9.10;;;;;;;;;;5110238;28;20054;-50
2022/05/19 06:32:03;;;;;;;19.33;9.23;;;;;;;;;;5110793;28;20513;-49
2022/05/19 06:34:29;;;;;;;22.95;10.27;;;;;;;;;;5116217;27;20039;-47
2022/05/19 06:36:56;;;;;;;11.45;8.30;;;;;;;;;;5116958;28;20414;-50
2022/05/19 06:39:21;;;;;;;23.60;11.55;;;;;;;;;;5118424;28;20145;-46
2022/05/19 06:42:02;;;;;;;18.77;10.15;;;;;;;;;;5116142;28;20055;-47
2022/05/19 06:44:35;;;;;;;24.92;17.52;;;;;;;;;;5112457;28;20043;-51
2022/05/19 06:47:01;;;;;;;23.88;11.93;;;;;;;;;;5116096;27;20059;-49
2022/05/19 06:49:26;;;;;;;24.73;12.38;;;;;;;;;;5116796;27;20508;-47
2022/05/19 06:51:52;;;;;;;23.15;11.40;;;;;;;;;;5112771;27;20142;-49
2022/05/19 06:54:17;;;;;;;24.63;14.38;;;;;;;;;;5120698;27;20039;-49
2022/05/19 06:56:43;;;;;;;36.08;17.38;;;;;;;;;;5120165;27;20050;-48
2022/05/19 06:59:08;;;;;;;41.35;16.05;;;;;;;;;;5121148;27;20572;-45
2022/05/19 07:01:33;;;;;;;30.30;23.23;;;;;;;;;;5113876;27;20048;-45
2022/05/19 07:03:59;;;;;;;23.98;20.23;;;;;;;;;;5108641;27;20107;-46
2022/05/19 07:06:25;;;;;;;26.13;17.50;;;;;;;;;;5106197;27;20062;-44
2022/05/19 07:08:50;;;;;;;19.73;16.30;;;;;;;;;;5112998;27;20411;-45
2022/05/19 07:11:24;;;;;;;21.50;15.93;;;;;;;;;;5119343;27;20480;-48
2022/05/19 07:14:10;;;;;;;28.52;14.77;;;;;;;;;;5119178;27;20067;-46
2022/05/19 07:16:35;;;;;;;26.67;9.38;;;;;;;;;;5119225;27;20046;-43
2022/05/19 07:21:46;;;;;;;19.55;9.07;;;;;;;;;;5120251;27;20063;-42
2022/05/19 07:24:16;;;;;;;8.10;5.80;;;;;;;;;;5120612;27;20059;-45
2022/05/19 07:26:45;;;;;;;11.95;7.90;;;;;;;;;;5122329;27;20471;-45
2022/05/19 07:29:11;;;;;;;10.82;7.20;;;;;;;;;;5119567;27;20061;-49
2022/05/19 07:31:36;;;;;;;6.72;5.28;;;;;;;;;;5119315;27;20066;-46
2022/05/19 07:34:02;;;;;;;12.73;7.53;;;;;;;;;;5120918;27;20550;-48
2022/05/19 07:36:28;;;;;;;17.00;9.23;;;;;;;;;;5120917;27;20051;-47
2022/05/19 07:38:54;;;;;;;14.43;7.75;;;;;;;;;;5118711;27;20550;-43
2022/05/19 07:41:19;;;;;;;10.52;9.13;;;;;;;;;;5117440;27;20579;-45
2022/05/19 07:43:45;;;;;;;21.92;9.77;;;;;;;;;;5120123;27;20130;-43
2022/05/19 07:46:11;;;;;;;13.93;8.73;;;;;;;;;;5122067;27;20074;-46
2022/05/19 07:48:37;;;;;;;10.50;5.53;;;;;;;;;;5112745;27;20131;-49
2022/05/19 07:51:03;;;;;;;6.60;4.80;;;;;;;;;;5117359;27;20134;-47
2022/05/19 07:53:28;;;;;;;11.45;7.90;;;;;;;;;;5123098;27;20035;-45
2022/05/19 07:55:54;;;;;;;18.63;7.28;;;;;;;;;;5118299;27;20047;-49
2022/05/19 07:58:19;;;;;;;21.63;6.97;;;;;;;;;;5119808;27;20678;-48
2022/05/19 08:00:46;;;;;;;11.82;5.38;;;;;;;;;;5120451;27;20045;-46
2022/05/19 08:03:12;;;;;;;4.85;4.45;;;;;;;;;;5114095;27;20056;-46
2022/05/19 08:05:37;;;;;;;11.20;5.07;;;;;;;;;;5117259;27;20043;-49
2022/05/19 08:08:03;;;;;;;9.02;5.85;;;;;;;;;;5113988;27;20044;-45
2022/05/19 08:10:28;;;;;;;19.23;9.95;;;;;;;;;;5113652;27;20420;-47
2022/05/19 08:15:39;;;;;;;14.13;7.10;;;;;;;;;;5115602;27;20090;-45
2022/05/19 08:18:09;;;;;;;16.33;4.68;;;;;;;;;;5113645;27;20520;-46
2022/05/19 08:20:35;;;;;;;7.95;6.38;;;;;;;;;;5116966;27;20047;-49
2022/05/19 08:23:01;;;;;;;11.75;7.82;;;;;;;;;;5105938;27;20065;-46
2022/05/19 08:25:29;;;;;;;10.07;4.88;;;;;;;;;;5116080;27;20426;-45
2022/05/19 08:27:55;;;;;;;19.65;9.82;;;;;;;;;;5106348;27;20476;-47
2022/05/19 08:30:20;;;;;;;20.13;11.40;;;;;;;;;;5114880;27;20070;-48
2022/05/19 08:32:46;;;;;;;10.68;7.82;;;;;;;;;;5117845;27;20051;-46
2022/05/19 08:35:11;;;;;;;10.13;6.28;;;;;;;;;;5120165;27;20047;-47
2022/05/19 08:37:37;;;;;;;13.88;7.38;;;;;;;;;;5113807;27;20097;-48
2022/05/19 08:40:02;;;;;;;7.28;5.53;;;;;;;;;;5118147;27;20126;-46
2022/05/19 08:42:31;;;;;;;16.10;6.35;;;;;;;;;;5117994;27;20539;-46
2022/05/19 08:44:58;;;;;;;9.93;5.68;;;;;;;;;;5116657;27;20047;-45
2022/05/19 08:47:28;;;;;;;84.47;14.55;;;;;;;;;;5120600;27;20043;-49
2022/05/19 08:50:01;;;;;;;11.20;5.87;;;;;;;;;;5115729;27;20039;-46
2022/05/19 08:52:31;;;;;;;6.32;4.68;;;;;;;;;;5117360;27;20043;-48
2022/05/19 08:54:57;;;;;;;8.57;5.28;;;;;;;;;;5116148;27;20082;-47
2022/05/19 08:57:35;;;;;;;5.30;3.20;;;;;;;;;;5112261;27;20067;-45
2022/05/19 09:00:09;;;;;;;8.73;4.75;;;;;;;;;;5110550;27;20142;-43
2022/05/19 09:02:37;;;;;;;9.82;4.70;;;;;;;;;;5113512;27;20130;-45
2022/05/19 09:05:21;;;;;;;74.82;13.25;;;;;;;;;;5118092;27;20049;-49
2022/05/19 09:08:06;;;;;;;5.93;2.97;;;;;;;;;;5103485;27;20507;-45
2022/05/19 09:10:51;;;;;;;8.93;3.70;;;;;;;;;;5119242;27;20533;-45
2022/05/19 09:13:23;;;;;;;10.55;4.70;;;;;;;;;;5106752;27;20436;-47
2022/05/19 09:15:49;;;;;;;8.25;5.50;;;;;;;;;;5113446;27;20055;-47
2022/05/19 09:18:16;;;;;;;7.30;4.82;;;;;;;;;;5106463;27;20089;-48
2022/05/19 09:20:48;;;;;;;10.38;5.97;;;;;;;;;;5116385;27;20046;-49
2022/05/19 09:23:13;;;;;;;9.25;2.60;;;;;;;;;;5110783;27;20067;-47
2022/05/19 09:25:42;;;;;;;5.07;3.33;;;;;;;;;;5115557;27;20503;-46
2022/05/19 09:28:08;;;;;;;5.18;3.95;;;;;;;;;;5120583;27;20053;-45
2022/05/19 09:30:35;;;;;;;14.63;4.72;;;;;;;;;;5120388;27;20428;-47
2022/05/19 09:33:04;;;;;;;16.05;6.35;;;;;;;;;;5096870;28;20092;-48
2022/05/19 09:35:36;;;;;;;6.57;4.72;;;;;;;;;;5116933;27;20129;-47
2022/05/19 09:38:17;;;;;;;16.48;6.57;;;;;;;;;;5116665;28;20508;-44
2022/05/19 09:40:44;;;;;;;13.30;6.50;;;;;;;;;;5121089;28;20082;-48
2022/05/19 09:43:10;;;;;;;9.50;4.50;;;;;;;;;;5120127;28;20047;-45
2022/05/19 09:45:42;;;;;;;13.43;3.17;;;;;;;;;;5112622;27;20469;-45
2022/05/19 09:48:08;;;;;;;10.32;4.03;;;;;;;;;;5118469;28;20480;-47
2022/05/19 09:50:45;;;;;;;6.20;3.50;;;;;;;;;;5118075;28;20507;-48
2022/05/19 09:53:14;;;;;;;5.13;2.90;;;;;;;;;;5121042;28;20126;-46
2022/05/19 09:55:39;;;;;;;5.32;2.95;;;;;;;;;;5118660;28;20097;-47
2022/05/19 09:58:07;;;;;;;7.28;3.92;;;;;;;;;;5115599;28;20040;-46
2022/05/19 10:00:35;;;;;;;12.38;4.82;;;;;;;;;;5119566;28;20208;-48
2022/05/19 10:03:01;;;;;;;5.90;4.88;;;;;;;;;;5110452;28;20052;-47
2022/05/19 10:05:31;;;;;;;14.35;5.57;;;;;;;;;;5107174;28;20122;-47
2022/05/19 10:08:00;;;;;;;13.20;4.90;;;;;;;;;;5106655;28;20081;-49
2022/05/19 10:10:27;;;;;;;3.95;2.13;;;;;;;;;;5113106;27;20055;-47
2022/05/19 10:12:56;;;;;;;8.02;4.13;;;;;;;;;;5115498;27;20038;-47
2022/05/19 10:15:26;;;;;;;7.07;2.53;;;;;;;;;;5100527;28;20036;-50
2022/05/19 10:17:55;;;;;;;5.43;2.65;;;;;;;;;;5107553;28;20051;-48
2022/05/19 10:20:25;;;;;;;5.95;2.55;;;;;;;;;;5116887;28;20043;-46
2022/05/19 10:23:04;;;;;;;5.07;3.42;;;;;;;;;;5116257;27;20051;-46
2022/05/19 10:25:53;;;;;;;6.40;2.92;;;;;;;;;;5117231;27;20035;-46
2022/05/19 10:31:08;;;;;;;10.73;3.30;;;;;;;;;;5125651;27;20067;-43
2022/05/19 10:33:36;;;;;;;5.03;3.35;;;;;;;;;;5122092;27;20039;-46
2022/05/19 10:36:02;;;;;;;12.68;3.88;;;;;;;;;;5121227;27;20040;-44
2022/05/19 10:38:46;;;;;;;3.20;2.20;;;;;;;;;;5111899;27;20047;-43
2022/05/19 10:41:12;;;;;;;11.95;2.13;;;;;;;;;;5116940;27;20039;-43
2022/05/19 10:43:37;;;;;;;8.15;3.15;;;;;;;;;;5107275;27;20028;-47
2022/05/19 10:46:05;;;;;;;4.18;3.28;;;;;;;;;;5122987;27;20040;-43
2022/05/19 10:48:34;;;;;;;9.23;4.43;;;;;;;;;;5123449;27;20040;-43
2022/05/19 10:51:17;;;;;;;13.27;3.40;;;;;;;;;;5121404;27;20542;-46
2022/05/19 10:53:42;;;;;;;5.82;3.20;;;;;;;;;;5107843;27;20036;-46
2022/05/19 10:56:31;;;;;;;11.77;3.67;;;;;;;;;;5119373;27;20431;-43
2022/05/19 10:59:13;;;;;;;5.97;2.85;;;;;;;;;;5102556;27;20434;-43
2022/05/19 11:01:50;;;;;;;21.27;5.97;;;;;;;;;;5113960;27;20117;-43
2022/05/19 11:04:34;;;;;;;6.95;3.42;;;;;;;;;;5121539;27;21970;-47
2022/05/19 11:07:17;;;;;;;13.65;3.13;;;;;;;;;;5113889;27;20054;-46
2022/05/19 11:09:45;;;;;;;5.78;3.30;;;;;;;;;;5110517;27;20476;-48
2022/05/19 11:12:19;;;;;;;8.52;4.55;;;;;;;;;;5121492;27;20508;-50
2022/05/19 11:14:57;;;;;;;6.80;3.30;;;;;;;;;;5122334;27;20100;-49
2022/05/19 11:17:48;;;;;;;4.82;3.08;;;;;;;;;;5116221;27;20050;-50
2022/05/19 11:20:25;;;;;;;9.50;5.28;;;;;;;;;;5119634;27;20467;-49
2022/05/19 11:22:52;;;;;;;9.35;4.28;;;;;;;;;;5117727;27;20147;-47
2022/05/19 11:28:28;;;;;;;7.95;4.38;;;;;;;;;;5121084;27;20085;-51
2022/05/19 11:31:02;;;;;;;13.50;5.82;;;;;;;;;;5124817;27;20047;-50
2022/05/19 11:33:34;;;;;;;3.13;1.92;;;;;;;;;;5116513;27;20035;-46
2022/05/19 11:36:03;;;;;;;20.35;5.28;;;;;;;;;;5113998;27;20045;-48
2022/05/19 11:38:28;;;;;;;11.48;8.90;;;;;;;;;;5111920;27;20607;-51
2022/05/19 11:41:00;;;;;;;8.75;4.40;;;;;;;;;;5111078;27;20130;-48
2022/05/19 11:43:26;;;;;;;9.48;3.40;;;;;;;;;;5115048;27;20063;-51
2022/05/19 11:45:58;;;;;;;4.95;3.50;;;;;;;;;;5104900;27;20078;-48
2022/05/19 11:57:08;;;;;;;7.25;2.85;;;;;;;;;;5107347;27;20267;-47
2022/05/19 11:59:35;;;;;;;10.07;4.75;;;;;;;;;;5114520;27;20065;-47
2022/05/19 12:02:00;;;;;;;10.30;6.28;;;;;;;;;;5117959;27;20049;-47
2022/05/19 12:04:28;;;;;;;3.08;2.35;;;;;;;;;;5119258;27;20050;-49
2022/05/19 12:07:17;;;;;;;12.05;10.85;;;;;;;;;;5110611;27;20059;-48
2022/05/19 12:09:44;;;;;;;12.15;4.28;;;;;;;;;;5075434;27;20085;-48
2022/05/19 12:12:18;;;;;;;10.93;5.00;;;;;;;;;;5118966;27;20043;-48
2022/05/19 12:14:48;;;;;;;9.05;4.10;;;;;;;;;;5120487;27;20054;-50
2022/05/19 12:17:28;;;;;;;6.60;3.95;;;;;;;;;;5119289;27;20050;-46
2022/05/19 12:19:58;;;;;;;6.10;3.33;;;;;;;;;;5112878;27;20044;-46
2022/05/19 12:22:23;;;;;;;5.90;4.00;;;;;;;;;;5110898;27;20138;-50
2022/05/19 12:24:49;;;;;;;7.10;5.15;;;;;;;;;;5113876;27;20150;-48
2022/05/19 12:27:20;;;;;;;7.85;4.93;;;;;;;;;;5116358;27;20112;-52
2022/05/19 12:29:54;;;;;;;5.40;3.92;;;;;;;;;;5111551;27;20496;-59
2022/05/19 12:32:22;;;;;;;5.25;3.10;;;;;;;;;;5117982;27;20043;-60
2022/05/19 12:34:49;;;;;;;12.27;5.03;;;;;;;;;;5122554;27;20068;-60
2022/05/19 12:37:15;;;;;;;14.25;5.07;;;;;;;;;;5116197;27;20130;-60
2022/05/19 12:39:47;;;;;;;6.95;4.07;;;;;;;;;;5112060;27;20046;-60
2022/05/19 12:42:23;;;;;;;14.82;9.30;;;;;;;;;;5118068;27;20074;-60
2022/05/19 12:44:54;;;;;;;10.70;4.82;;;;;;;;;;5109272;27;20047;-60
2022/05/19 12:47:25;;;;;;;9.88;6.13;;;;;;;;;;5112269;27;20043;-60
2022/05/19 12:50:10;;;;;;;4.25;3.28;;;;;;;;;;5108845;27;20048;-60
2022/05/19 12:52:54;;;;;;;8.98;4.95;;;;;;;;;;5112053;27;20048;-60
2022/05/19 12:55:28;;;;;;;5.25;4.70;;;;;;;;;;5109813;27;20118;-59
2022/05/19 12:57:54;;;;;;;9.10;3.70;;;;;;;;;;5119252;27;20926;-60
2022/05/19 13:00:21;;;;;;;5.97;4.40;;;;;;;;;;5113096;27;20510;-59
2022/05/19 13:02:50;;;;;;;25.88;7.45;;;;;;;;;;5119310;27;20083;-60
2022/05/19 13:05:29;;;;;;;5.40;3.83;;;;;;;;;;5111077;27;20046;-60
2022/05/19 13:08:01;;;;;;;4.28;3.22;;;;;;;;;;5107452;27;20551;-60
2022/05/19 13:10:35;;;;;;;4.05;2.95;;;;;;;;;;5113000;27;20056;-60
2022/05/19 13:13:06;;;;;;;6.18;3.97;;;;;;;;;;5119234;27;20041;-59
2022/05/19 13:15:33;;;;;;;11.30;5.15;;;;;;;;;;5117851;27;20069;-59
2022/05/19 13:17:59;;;;;;;11.90;7.43;;;;;;;;;;5116115;27;20492;-60
2022/05/19 13:20:35;;;;;;;5.88;5.22;;;;;;;;;;5109364;27;20443;-49
2022/05/19 13:23:04;;;;;;;7.43;5.50;;;;;;;;;;5115151;27;20043;-53
2022/05/19 13:25:31;;;;;;;27.80;7.55;;;;;;;;;;5118333;27;20065;-51
2022/05/19 13:30:51;;;;;;;5.85;5.00;;;;;;;;;;5109051;27;20066;-47
2022/05/19 13:33:18;;;;;;;6.13;4.53;;;;;;;;;;5119633;27;20032;-48
2022/05/19 13:35:44;;;;;;;6.25;3.97;;;;;;;;;;5108779;28;20046;-50
2022/05/19 13:38:20;;;;;;;3.17;2.42;;;;;;;;;;5104508;28;20416;-48
2022/05/19 13:40:46;;;;;;;6.90;4.63;;;;;;;;;;5106375;28;20565;-49
2022/05/19 13:43:29;;;;;;;8.70;6.00;;;;;;;;;;5116003;28;20040;-44
2022/05/19 13:45:59;;;;;;;6.45;4.13;;;;;;;;;;5119143;28;20112;-46
2022/05/19 13:48:30;;;;;;;6.88;4.82;;;;;;;;;;5115803;28;20078;-47
2022/05/19 13:50:56;;;;;;;6.10;4.05;;;;;;;;;;5118802;28;20404;-45
2022/05/19 13:53:21;;;;;;;5.32;3.83;;;;;;;;;;5114886;28;20040;-47
2022/05/19 13:55:55;;;;;;;7.65;4.68;;;;;;;;;;5118213;27;20508;-48
2022/05/19 13:58:21;;;;;;;8.32;3.67;;;;;;;;;;5114501;27;20133;-46
2022/05/19 14:00:47;;;;;;;12.32;3.80;;;;;;;;;;5121054;27;20048;-48
2022/05/19 14:03:13;;;;;;;4.63;3.03;;;;;;;;;;5121438;27;20431;-47
2022/05/19 14:05:40;;;;;;;5.70;2.38;;;;;;;;;;5123360;27;20046;-47
2022/05/19 14:08:07;;;;;;;4.07;3.13;;;;;;;;;;5123385;27;20182;-49
2022/05/19 14:10:39;;;;;;;4.68;3.38;;;;;;;;;;5119591;27;20077;-46
2022/05/19 14:13:04;;;;;;;6.13;4.05;;;;;;;;;;5114374;27;20035;-44
2022/05/19 14:15:48;;;;;;;6.20;3.60;;;;;;;;;;5113306;27;20107;-43
2022/05/19 14:18:16;;;;;;;17.05;6.75;;;;;;;;;;5122288;27;20051;-45
2022/05/19 14:20:43;;;;;;;12.05;4.40;;;;;;;;;;5121553;27;20055;-46
2022/05/19 14:23:12;;;;;;;5.72;5.05;;;;;;;;;;5122189;27;20443;-45
2022/05/19 14:25:38;;;;;;;4.35;3.95;;;;;;;;;;5121140;27;20056;-50
2022/05/19 14:28:16;;;;;;;6.35;5.70;;;;;;;;;;5113473;27;20047;-51
2022/05/19 14:30:42;;;;;;;21.35;5.70;;;;;;;;;;5121443;27;20043;-51
2022/05/19 14:33:13;;;;;;;14.18;4.70;;;;;;;;;;5117457;27;20067;-50
2022/05/19 14:36:08;;;;;;;4.50;3.58;;;;;;;;;;5111427;27;20093;-52
2022/05/19 14:38:33;;;;;;;6.25;3.70;;;;;;;;;;5070823;27;20072;-47
2022/05/19 14:43:52;;;;;;;5.13;4.43;;;;;;;;;;5121639;27;20515;-51
2022/05/19 14:46:20;;;;;;;14.98;5.10;;;;;;;;;;5109101;27;20058;-52
2022/05/19 14:48:49;;;;;;;6.93;4.18;;;;;;;;;;5118224;27;20120;-47
2022/05/19 14:51:28;;;;;;;11.13;4.40;;;;;;;;;;5112247;27;20051;-49
2022/05/19 14:53:54;;;;;;;5.70;3.85;;;;;;;;;;5121219;27;20039;-51
2022/05/19 14:56:21;;;;;;;5.53;3.63;;;;;;;;;;5121128;27;20078;-50
2022/05/19 14:58:52;;;;;;;6.03;3.95;;;;;;;;;;5121152;27;20035;-52
2022/05/19 15:01:17;;;;;;;6.68;4.13;;;;;;;;;;5121234;27;20062;-50
2022/05/19 15:03:43;;;;;;;3.08;2.35;;;;;;;;;;5124198;27;20501;-48
2022/05/19 15:06:08;;;;;;;4.65;2.85;;;;;;;;;;5121878;27;20135;-50
2022/05/19 15:08:34;;;;;;;6.45;4.38;;;;;;;;;;5119319;27;20035;-49
2022/05/19 15:10:59;;;;;;;5.93;2.17;;;;;;;;;;5122527;27;20415;-49